Time;durP1;ratioP1;P1;durP2;ratioP2;P2;SDS_P1;SDS_P2;PMS_P1;PMS_P2;Temp;Humidity;BMP_temperature;BMP_pressure;BME280_temperature;BME280_humidity;BME280_pressure;Samples;Min_cycle;Max_cycle;Signal;HPM_P1;HPM_P2
2022/06/24 00:02:02;;;;;;;6.28;2.95;;;;;;;18.87;65.38;95347.91;4991596;28;20025;-77
2022/06/24 00:04:29;;;;;;;6.28;3.00;;;;;;;18.80;65.35;95349.09;5006994;28;20021;-78
2022/06/24 00:06:54;;;;;;;7.55;3.20;;;;;;;18.69;65.23;95345.25;4991817;28;20104;-77
2022/06/24 00:09:20;;;;;;;7.15;3.45;;;;;;;18.62;65.85;95348.88;4994333;28;20025;-77
2022/06/24 00:11:47;;;;;;;6.18;2.90;;;;;;;18.62;65.64;95351.59;5007872;28;20040;-77
2022/06/24 00:14:15;;;;;;;3.80;2.63;;;;;;;18.65;65.11;95353.03;5008173;28;20033;-78
2022/06/24 00:16:57;;;;;;;5.13;2.40;;;;;;;18.63;65.32;95361.44;5007851;28;20038;-78
2022/06/24 00:19:23;;;;;;;7.88;3.00;;;;;;;18.71;64.96;95359.44;5008217;28;20049;-78
2022/06/24 00:22:08;;;;;;;4.30;2.75;;;;;;;18.57;65.11;95356.88;5024832;28;20037;-77
2022/06/24 00:24:35;;;;;;;4.15;3.15;;;;;;;18.41;65.61;95359.19;5005989;28;20095;-77
2022/06/24 00:27:01;;;;;;;6.65;3.03;;;;;;;18.46;65.48;95365.84;5009269;28;20441;-78
2022/06/24 00:29:28;;;;;;;6.68;2.58;;;;;;;18.43;65.68;95377.97;4990957;28;20040;-77
2022/06/24 00:32:04;;;;;;;4.45;2.90;;;;;;;18.45;65.43;95377.72;5006957;28;20040;-76
2022/06/24 00:34:30;;;;;;;4.55;2.50;;;;;;;18.48;65.58;95380.00;5021468;28;20064;-76
2022/06/24 00:36:55;;;;;;;7.03;2.92;;;;;;;18.54;65.59;95389.94;5004030;28;20463;-76
2022/06/24 00:39:31;;;;;;;8.10;2.90;;;;;;;18.58;66.00;95393.03;5007983;28;20076;-77
2022/06/24 00:41:56;;;;;;;8.23;3.50;;;;;;;18.45;65.83;95389.44;4990143;28;20432;-78
2022/06/24 00:44:22;;;;;;;6.22;3.55;;;;;;;18.41;65.63;95388.22;5005929;28;20033;-78
2022/06/24 00:46:47;;;;;;;4.20;2.90;;;;;;;18.45;65.38;95394.88;5022278;28;20022;-77
2022/06/24 00:49:13;;;;;;;5.68;2.90;;;;;;;18.47;65.37;95383.78;5008222;28;20029;-77
2022/06/24 00:51:38;;;;;;;4.50;2.70;;;;;;;18.56;65.61;95387.00;5007301;28;20037;-77
2022/06/24 00:54:15;;;;;;;5.80;2.63;;;;;;;18.59;65.41;95387.38;5022033;28;20021;-77
2022/06/24 00:56:40;;;;;;;6.07;3.05;;;;;;;18.60;65.26;95380.91;5024872;28;20164;-77
2022/06/24 00:59:07;;;;;;;3.65;3.00;;;;;;;18.56;65.49;95387.84;4989999;28;20037;-77
2022/06/24 01:01:38;;;;;;;5.65;2.90;;;;;;;18.54;65.18;95389.94;5023211;28;20039;-77
2022/06/24 01:04:09;;;;;;;5.78;2.83;;;;;;;18.56;64.75;95381.56;5004099;28;20467;-77
2022/06/24 01:06:40;;;;;;;4.70;2.85;;;;;;;18.49;65.01;95387.09;5013726;28;20056;-77
2022/06/24 01:09:07;;;;;;;7.20;2.70;;;;;;;18.45;64.80;95389.44;5006780;28;20029;-77
2022/06/24 01:11:37;;;;;;;3.60;2.30;;;;;;;18.43;64.69;95388.00;4990469;28;20051;-77
2022/06/24 01:14:03;;;;;;;6.50;2.88;;;;;;;18.40;64.50;95392.00;5020631;28;20044;-77
2022/06/24 01:16:28;;;;;;;5.75;2.83;;;;;;;18.29;64.70;95382.75;5005313;28;20025;-77
2022/06/24 01:18:55;;;;;;;3.47;2.60;;;;;;;18.29;64.25;95393.59;5006675;28;20079;-77
2022/06/24 01:21:33;;;;;;;7.15;2.67;;;;;;;18.06;64.59;95386.94;4989453;28;20047;-77
2022/06/24 01:24:19;;;;;;;5.85;2.65;;;;;;;18.02;65.10;95389.25;5005524;28;20773;-77
2022/06/24 01:26:46;;;;;;;4.47;2.92;;;;;;;18.01;64.46;95392.19;5017706;28;20048;-78
2022/06/24 01:29:12;;;;;;;5.18;2.80;;;;;;;17.95;64.73;95390.38;4989920;28;20021;-78
2022/06/24 01:31:40;;;;;;;8.35;2.80;;;;;;;17.87;65.26;95386.91;5006726;28;20124;-78
2022/06/24 01:34:09;;;;;;;5.85;3.15;;;;;;;17.87;66.00;95381.50;5006756;28;20512;-79
2022/06/24 01:36:34;;;;;;;5.68;3.00;;;;;;;17.88;65.34;95383.16;5007198;28;20025;-79
2022/06/24 01:39:00;;;;;;;5.38;2.92;;;;;;;17.96;64.87;95389.34;4990892;28;20056;-79
2022/06/24 01:41:25;;;;;;;4.72;2.65;;;;;;;17.95;65.07;95388.50;5007653;28;20036;-78
2022/06/24 01:43:51;;;;;;;8.48;2.70;;;;;;;17.94;65.08;95386.88;5014227;28;20029;-78
2022/06/24 01:46:16;;;;;;;3.75;2.70;;;;;;;17.91;65.30;95377.28;4989688;28;20479;-79
2022/06/24 01:48:42;;;;;;;3.92;3.00;;;;;;;17.92;65.48;95381.66;5006029;28;20411;-78
2022/06/24 01:51:07;;;;;;;5.53;2.75;;;;;;;17.91;65.19;95390.84;5005750;28;20022;-79
2022/06/24 01:53:33;;;;;;;6.28;4.18;;;;;;;17.88;65.97;95385.84;4990280;28;20034;-78
2022/06/24 01:55:59;;;;;;;3.85;2.70;;;;;;;17.91;65.77;95379.19;5003144;28;20472;-76
2022/06/24 01:58:25;;;;;;;4.50;2.60;;;;;;;17.89;65.87;95356.84;5023207;28;20580;-76
2022/06/24 02:00:50;;;;;;;5.25;2.80;;;;;;;17.90;65.94;95343.06;5005485;28;20037;-76
2022/06/24 02:03:16;;;;;;;6.40;2.90;;;;;;;17.89;65.58;95346.81;5006637;28;20528;-76
2022/06/24 02:05:41;;;;;;;4.05;2.63;;;;;;;17.88;64.65;95347.88;4986952;28;20032;-77
2022/06/24 02:08:07;;;;;;;3.97;2.38;;;;;;;17.86;64.94;95343.75;5022517;28;20091;-77
2022/06/24 02:13:28;;;;;;;3.50;2.55;;;;;;;17.86;64.85;95357.31;5023506;28;20040;-77
2022/06/24 02:15:54;;;;;;;4.97;2.70;;;;;;;17.78;64.80;95358.44;5006596;28;20140;-77
2022/06/24 02:18:20;;;;;;;8.65;2.85;;;;;;;17.67;64.71;95360.81;5022538;28;20049;-77
2022/06/24 02:20:46;;;;;;;4.95;2.90;;;;;;;17.66;64.95;95370.03;5007389;28;20025;-77
2022/06/24 02:23:11;;;;;;;9.10;3.47;;;;;;;17.63;65.04;95362.34;5005964;28;20479;-78
2022/06/24 02:25:37;;;;;;;4.97;2.72;;;;;;;17.57;65.10;95360.53;5004999;28;20339;-78
2022/06/24 02:28:02;;;;;;;5.70;2.83;;;;;;;17.50;64.96;95373.28;5023415;28;20021;-77
2022/06/24 02:30:28;;;;;;;3.53;2.90;;;;;;;17.50;65.45;95381.44;5006674;28;20701;-77
2022/06/24 02:32:53;;;;;;;4.10;2.60;;;;;;;17.57;65.40;95387.63;5022666;28;20033;-76
2022/06/24 02:35:19;;;;;;;4.75;2.53;;;;;;;17.57;64.54;95384.94;4987039;28;20026;-77
2022/06/24 02:37:44;;;;;;;4.75;2.70;;;;;;;17.51;65.00;95383.91;5005144;28;20037;-77
2022/06/24 02:42:58;;;;;;;5.22;2.60;;;;;;;17.40;65.46;95377.34;5009778;28;20036;-77
2022/06/24 02:45:23;;;;;;;5.38;2.63;;;;;;;17.40;65.33;95363.78;5019949;28;20029;-77
2022/06/24 02:47:49;;;;;;;4.63;2.72;;;;;;;17.45;65.37;95367.69;5018618;28;20144;-77
2022/06/24 02:50:14;;;;;;;4.13;2.90;;;;;;;17.48;65.42;95368.09;4989078;28;20088;-77
2022/06/24 02:52:40;;;;;;;7.07;2.88;;;;;;;17.51;65.43;95359.50;5021400;28;20018;-77
2022/06/24 02:55:06;;;;;;;5.28;3.00;;;;;;;17.49;65.74;95349.97;4987082;28;20036;-77
2022/06/24 02:57:31;;;;;;;7.78;3.45;;;;;;;17.49;65.88;95353.47;5008709;28;20032;-77
2022/06/24 02:59:56;;;;;;;4.97;3.28;;;;;;;17.41;66.35;95360.00;4991910;28;20034;-77
2022/06/24 03:02:22;;;;;;;7.15;3.95;;;;;;;17.47;66.47;95366.44;5009521;28;20116;-77
2022/06/24 03:04:47;;;;;;;5.50;3.28;;;;;;;17.40;66.32;95369.22;5026442;28;20115;-77
2022/06/24 03:07:13;;;;;;;7.15;3.40;;;;;;;17.46;66.39;95369.38;5009474;28;20026;-77
2022/06/24 03:09:38;;;;;;;10.82;3.70;;;;;;;17.50;66.17;95370.59;5009100;28;20491;-77
2022/06/24 03:12:04;;;;;;;5.35;3.67;;;;;;;17.47;65.92;95362.91;4994450;28;20041;-77
2022/06/24 03:14:29;;;;;;;7.13;3.20;;;;;;;17.44;65.65;95366.91;5024904;28;20084;-77
2022/06/24 03:16:55;;;;;;;7.85;3.22;;;;;;;17.39;65.83;95372.97;5027474;28;20026;-78
2022/06/24 03:19:20;;;;;;;4.63;2.80;;;;;;;17.50;64.89;95370.59;5008419;28;20045;-78
2022/06/24 03:21:46;;;;;;;6.13;3.30;;;;;;;17.55;64.85;95373.47;5010012;28;20432;-78
2022/06/24 03:24:11;;;;;;;6.85;2.88;;;;;;;17.58;64.99;95378.44;5008014;28;20416;-78
2022/06/24 03:26:37;;;;;;;5.40;2.90;;;;;;;17.62;64.35;95381.53;5025107;28;20527;-77
2022/06/24 03:29:02;;;;;;;5.82;2.97;;;;;;;17.70;64.23;95383.13;5009008;28;20021;-77
2022/06/24 03:31:28;;;;;;;7.57;3.20;;;;;;;17.72;64.38;95389.13;5026014;28;20025;-77
2022/06/24 03:33:55;;;;;;;4.93;3.50;;;;;;;17.77;64.48;95389.31;5025723;28;20033;-78
2022/06/24 03:36:21;;;;;;;5.65;3.58;;;;;;;17.80;64.24;95391.56;5023748;28;20017;-77
2022/06/24 03:38:46;;;;;;;7.65;3.58;;;;;;;17.81;64.22;95392.41;5016598;28;20029;-77
2022/06/24 03:41:13;;;;;;;7.50;3.47;;;;;;;17.80;64.25;95383.44;5007183;28;20042;-77
2022/06/24 03:43:38;;;;;;;7.15;2.88;;;;;;;17.86;63.92;95382.53;5008468;28;20057;-77
2022/06/24 03:46:04;;;;;;;5.50;3.05;;;;;;;17.90;63.82;95383.75;5007340;28;20021;-77
2022/06/24 03:48:29;;;;;;;6.03;3.40;;;;;;;17.91;63.31;95379.97;4993130;28;20026;-78
2022/06/24 03:50:55;;;;;;;5.32;2.80;;;;;;;17.95;63.37;95387.66;5007222;28;20492;-78
2022/06/24 03:53:22;;;;;;;8.20;2.83;;;;;;;18.00;63.75;95391.38;5005895;28;20029;-77
2022/06/24 03:55:51;;;;;;;4.45;2.63;;;;;;;18.05;63.57;95374.44;5006120;28;20032;-78
2022/06/24 03:58:17;;;;;;;6.47;2.90;;;;;;;18.00;62.43;95380.53;5007893;28;20030;-77
2022/06/24 04:00:43;;;;;;;5.68;2.97;;;;;;;17.98;62.98;95374.50;5024397;28;20029;-77
2022/06/24 04:03:08;;;;;;;10.15;3.00;;;;;;;18.05;63.00;95371.72;5008035;28;20030;-77
2022/06/24 04:05:34;;;;;;;9.35;3.60;;;;;;;18.16;63.30;95375.56;4990017;28;20484;-77
2022/06/24 04:07:59;;;;;;;8.13;3.97;;;;;;;18.11;64.15;95376.22;5007145;28;20543;-78
2022/06/24 04:10:25;;;;;;;4.95;3.38;;;;;;;18.03;63.72;95379.25;5007542;28;20033;-77
2022/06/24 04:12:51;;;;;;;6.43;3.20;;;;;;;17.92;63.99;95381.66;5007547;28;20021;-77
2022/06/24 04:15:17;;;;;;;9.23;3.90;;;;;;;18.02;64.24;95378.41;5005743;28;20033;-77
2022/06/24 04:17:44;;;;;;;9.85;3.17;;;;;;;18.21;64.11;95385.75;4992122;28;20018;-77
2022/06/24 04:20:09;;;;;;;10.50;3.55;;;;;;;18.25;63.47;95390.50;5007281;28;20067;-77
2022/06/24 04:22:36;;;;;;;8.38;3.38;;;;;;;18.19;63.83;95396.00;4993030;28;20438;-77
2022/06/24 04:25:01;;;;;;;4.03;3.20;;;;;;;18.15;63.69;95412.72;5021468;28;20027;-77
2022/06/24 04:27:29;;;;;;;8.10;3.33;;;;;;;18.14;63.97;95424.66;5009417;28;20036;-78
2022/06/24 04:30:07;;;;;;;14.90;4.47;;;;;;;17.97;65.00;95413.53;5024674;28;20549;-77
2022/06/24 04:32:33;;;;;;;20.40;4.50;;;;;;;17.90;65.48;95405.47;5005162;28;20018;-77
2022/06/24 04:34:58;;;;;;;20.27;4.30;;;;;;;17.96;65.37;95405.63;5036916;28;20021;-77
2022/06/24 04:37:24;;;;;;;14.52;4.45;;;;;;;18.06;65.45;95399.66;5022761;28;20025;-77
2022/06/24 04:39:49;;;;;;;16.65;4.30;;;;;;;18.20;65.34;95400.38;5007287;28;20041;-77
2022/06/24 04:42:15;;;;;;;15.65;4.72;;;;;;;18.27;64.76;95406.56;5006415;28;20416;-78
2022/06/24 04:44:41;;;;;;;16.65;4.80;;;;;;;18.38;64.88;95408.50;5004059;28;20144;-77
2022/06/24 04:47:06;;;;;;;12.95;4.40;;;;;;;18.57;64.98;95413.09;5008437;28;20120;-77
2022/06/24 04:49:35;;;;;;;12.90;4.22;;;;;;;18.82;63.97;95409.44;4990938;28;20053;-77
2022/06/24 04:52:01;;;;;;;12.05;4.00;;;;;;;18.93;63.87;95407.81;5006945;28;20025;-77
2022/06/24 04:54:26;;;;;;;10.90;4.70;;;;;;;19.06;64.00;95407.63;5003987;28;20508;-77
2022/06/24 04:56:52;;;;;;;14.38;4.88;;;;;;;19.16;63.29;95412.53;5003307;28;20026;-77
2022/06/24 04:59:17;;;;;;;15.60;4.72;;;;;;;19.06;63.38;95407.63;5022510;28;20029;-78
2022/06/24 05:01:43;;;;;;;24.02;4.90;;;;;;;19.02;63.56;95406.44;5007811;28;20036;-92
2022/06/24 05:04:08;;;;;;;13.75;4.80;;;;;;;19.21;63.26;95409.97;5001237;28;20034;-94
2022/06/24 05:06:34;;;;;;;19.02;5.22;;;;;;;19.36;63.38;95412.22;5004646;28;20832;-88
2022/06/24 05:08:59;;;;;;;14.25;4.78;;;;;;;19.44;62.78;95413.75;5022366;28;20025;-86
2022/06/24 05:11:25;;;;;;;18.42;5.53;;;;;;;19.54;64.10;95418.63;5026687;28;20123;-86
2022/06/24 05:13:50;;;;;;;11.50;4.25;;;;;;;19.55;63.58;95423.03;4994287;28;20033;-86
2022/06/24 05:16:16;;;;;;;12.48;4.60;;;;;;;19.42;64.54;95426.78;5006290;28;20079;-81
2022/06/24 05:18:41;;;;;;;10.15;4.50;;;;;;;19.67;64.47;95419.50;5004957;28;20050;-82
2022/06/24 05:21:07;;;;;;;13.73;4.70;;;;;;;19.71;62.92;95426.94;5005895;28;20501;-82
2022/06/24 05:23:32;;;;;;;14.35;4.57;;;;;;;19.58;63.37;95430.72;4990040;28;20022;-82
2022/06/24 05:25:57;;;;;;;11.85;5.18;;;;;;;19.66;63.98;95428.69;5006737;28;20076;-81
2022/06/24 05:28:23;;;;;;;10.25;5.00;;;;;;;19.86;63.77;95431.09;5008332;28;20096;-81
2022/06/24 05:30:57;;;;;;;9.07;4.75;;;;;;;20.10;63.04;95436.56;5007893;28;20478;-82
2022/06/24 05:33:23;;;;;;;8.60;5.00;;;;;;;20.16;62.66;95429.34;5010302;28;20499;-81
2022/06/24 05:35:53;;;;;;;8.05;5.05;;;;;;;20.25;62.29;95434.19;4991379;28;20417;-82
2022/06/24 05:38:23;;;;;;;14.25;4.82;;;;;;;20.49;61.01;95434.13;4990474;28;20496;-81
2022/06/24 05:40:51;;;;;;;8.13;4.90;;;;;;;20.61;60.44;95431.41;5008043;28;20033;-82
2022/06/24 05:43:18;;;;;;;11.52;5.40;;;;;;;20.81;60.26;95432.84;4996694;28;20060;-82
2022/06/24 05:45:44;;;;;;;7.40;4.72;;;;;;;20.98;60.58;95426.66;5024768;28;20017;-82
2022/06/24 05:48:09;;;;;;;12.10;5.10;;;;;;;21.19;61.34;95435.22;5021004;28;20025;-81
2022/06/24 05:50:38;;;;;;;7.82;5.28;;;;;;;21.27;61.20;95444.91;5006665;28;20477;-80
2022/06/24 05:55:49;;;;;;;5.88;4.75;;;;;;;20.79;60.30;95465.00;5017863;28;20051;-79
2022/06/24 05:58:14;;;;;;;7.32;5.05;;;;;;;20.80;60.63;95457.63;5020722;28;20547;-80
2022/06/24 06:00:39;;;;;;;7.05;4.57;;;;;;;20.82;60.97;95460.94;5020621;28;20033;-82
2022/06/24 06:03:05;;;;;;;13.73;4.80;;;;;;;20.83;60.96;95455.25;5022353;28;20467;-81
2022/06/24 06:05:30;;;;;;;10.48;4.80;;;;;;;20.93;61.52;95449.22;5021018;28;20060;-81
2022/06/24 06:07:56;;;;;;;5.30;4.32;;;;;;;20.88;61.84;95441.72;5022710;28;20037;-82
2022/06/24 06:10:21;;;;;;;8.68;5.88;;;;;;;20.75;61.83;95442.00;4989150;28;20021;-82
2022/06/24 06:12:47;;;;;;;12.68;6.38;;;;;;;20.61;62.37;95431.41;5022047;28;20057;-82
2022/06/24 06:15:12;;;;;;;12.88;5.88;;;;;;;20.95;61.57;95435.34;5022925;28;20021;-83
2022/06/24 06:17:37;;;;;;;8.30;5.93;;;;;;;20.83;61.93;95419.00;5022899;28;20063;-83
2022/06/24 06:20:03;;;;;;;7.50;5.85;;;;;;;21.14;61.26;95424.22;5021317;28;20448;-83
2022/06/24 06:22:29;;;;;;;9.00;5.82;;;;;;;21.16;61.01;95430.28;5020824;28;20475;-81
2022/06/24 06:24:55;;;;;;;8.55;5.65;;;;;;;21.31;60.07;95432.47;5005925;28;20381;-81
2022/06/24 06:27:21;;;;;;;8.57;5.45;;;;;;;21.51;59.79;95431.13;5022679;28;20033;-83
2022/06/24 06:29:47;;;;;;;7.63;5.18;;;;;;;21.63;59.27;95434.63;5019732;28;20036;-81
2022/06/24 06:32:12;;;;;;;7.78;4.70;;;;;;;21.76;58.61;95430.75;5022892;28;20025;-82
2022/06/24 06:34:38;;;;;;;12.35;5.93;;;;;;;21.58;59.30;95429.94;5005008;28;20026;-81
2022/06/24 06:37:03;;;;;;;5.82;4.82;;;;;;;21.62;59.21;95427.50;5021839;28;20460;-81
2022/06/24 06:39:29;;;;;;;12.18;6.15;;;;;;;21.70;60.21;95423.56;5020136;28;20038;-80
2022/06/24 06:41:54;;;;;;;7.05;5.13;;;;;;;21.81;59.92;95419.91;5021668;28;20036;-83
2022/06/24 06:44:20;;;;;;;8.15;5.50;;;;;;;21.96;58.56;95422.06;5005658;28;20021;-83
2022/06/24 06:46:45;;;;;;;7.63;5.15;;;;;;;22.01;59.74;95418.59;5023070;28;20495;-82
2022/06/24 06:49:11;;;;;;;7.47;4.70;;;;;;;21.97;58.75;95412.00;5019032;28;20045;-81
2022/06/24 06:51:37;;;;;;;6.63;4.25;;;;;;;21.95;58.46;95408.66;5021028;28;20585;-82
2022/06/24 06:54:03;;;;;;;7.53;3.58;;;;;;;21.90;58.04;95408.59;5021119;28;20480;-82
2022/06/24 06:56:28;;;;;;;7.05;3.80;;;;;;;21.97;57.04;95406.53;5004058;28;20036;-81
2022/06/24 06:58:54;;;;;;;9.73;4.50;;;;;;;22.09;56.85;95407.25;5001274;28;20095;-81
2022/06/24 07:01:19;;;;;;;5.30;3.90;;;;;;;22.19;56.19;95414.75;5022633;28;20033;-80
2022/06/24 07:03:45;;;;;;;9.27;4.25;;;;;;;21.90;57.83;95405.84;5020819;28;20030;-80
2022/06/24 07:06:10;;;;;;;9.68;4.20;;;;;;;21.99;57.24;95404.34;5004514;28;20037;-81
2022/06/24 07:08:35;;;;;;;9.63;4.53;;;;;;;22.38;58.39;95405.41;5001811;28;20041;-81
2022/06/24 07:11:03;;;;;;;6.07;4.68;;;;;;;22.26;56.96;95403.66;5024131;28;20029;-82
2022/06/24 07:13:29;;;;;;;5.88;4.30;;;;;;;22.23;56.60;95406.91;5021239;28;20499;-82
2022/06/24 07:15:54;;;;;;;8.85;4.55;;;;;;;21.84;58.21;95394.84;5022623;28;20087;-83
2022/06/24 07:18:19;;;;;;;7.50;4.47;;;;;;;22.06;58.06;95394.09;5001410;28;20052;-82
2022/06/24 07:20:45;;;;;;;9.88;5.07;;;;;;;22.01;58.66;95387.72;5022285;28;20599;-81
2022/06/24 07:23:11;;;;;;;10.93;4.82;;;;;;;21.85;57.36;95388.34;5020758;28;20083;-82
2022/06/24 07:25:36;;;;;;;7.25;5.15;;;;;;;22.08;57.79;95391.94;5020727;28;20030;-81
2022/06/24 07:28:02;;;;;;;9.85;5.00;;;;;;;21.96;58.67;95391.19;5020138;28;20056;-82
2022/06/24 07:30:28;;;;;;;6.38;4.63;;;;;;;21.92;58.88;95398.25;4999032;28;20045;-82
2022/06/24 07:32:53;;;;;;;11.68;5.10;;;;;;;22.05;57.98;95400.66;5002597;28;20057;-83
2022/06/24 07:35:19;;;;;;;10.48;4.93;;;;;;;22.19;57.23;95397.53;5019360;28;20029;-82
2022/06/24 07:37:44;;;;;;;8.45;4.35;;;;;;;22.21;56.39;95393.50;5020621;28;20021;-82
2022/06/24 07:40:10;;;;;;;7.85;5.03;;;;;;;22.32;56.41;95388.97;5019171;28;20045;-81
2022/06/24 07:42:36;;;;;;;5.43;4.07;;;;;;;22.39;56.06;95390.69;4993335;28;20495;-82
2022/06/24 07:45:01;;;;;;;6.20;4.40;;;;;;;22.79;55.22;95396.94;5013257;28;20503;-83
2022/06/24 07:47:27;;;;;;;4.57;4.18;;;;;;;22.91;55.37;95392.16;5008119;28;20539;-82
2022/06/24 07:49:52;;;;;;;6.05;4.57;;;;;;;22.57;56.25;95384.91;5006125;28;20021;-82
2022/06/24 07:52:18;;;;;;;8.82;4.28;;;;;;;22.28;56.17;95384.28;5025046;28;20407;-81
2022/06/24 07:54:43;;;;;;;7.22;4.55;;;;;;;22.27;55.70;95386.19;5024543;28;20056;-83
2022/06/24 07:57:09;;;;;;;6.55;4.20;;;;;;;22.37;54.39;95382.75;5006881;28;20022;-80
2022/06/24 07:59:35;;;;;;;7.10;3.88;;;;;;;22.50;54.33;95380.72;5022006;28;20022;-81
2022/06/24 08:02:02;;;;;;;14.18;4.63;;;;;;;22.68;53.72;95376.88;5023609;28;20040;-81
2022/06/24 08:04:28;;;;;;;5.03;3.60;;;;;;;22.66;53.69;95368.94;5024772;28;20033;-81
2022/06/24 08:06:53;;;;;;;11.63;4.55;;;;;;;22.62;55.81;95366.97;4991708;28;20029;-81
2022/06/24 08:09:20;;;;;;;4.65;4.15;;;;;;;22.27;56.24;95383.44;5025735;28;20029;-81
2022/06/24 08:11:45;;;;;;;4.78;4.22;;;;;;;22.23;56.07;95383.13;5011591;28;20045;-81
2022/06/24 08:14:12;;;;;;;6.85;3.80;;;;;;;22.39;56.13;95374.31;4994150;28;20072;-81
2022/06/24 08:16:38;;;;;;;7.88;4.00;;;;;;;22.56;55.10;95375.06;5025437;28;20033;-82
2022/06/24 08:19:05;;;;;;;7.70;3.45;;;;;;;22.64;53.53;95376.53;5023267;28;20065;-82
2022/06/24 08:21:30;;;;;;;5.57;3.33;;;;;;;22.89;52.90;95366.16;5010068;28;20038;-82
2022/06/24 08:23:56;;;;;;;12.80;3.78;;;;;;;23.00;53.14;95373.38;5008072;28;20037;-82
2022/06/24 08:26:21;;;;;;;4.80;3.45;;;;;;;23.47;53.99;95368.38;5008331;28;20032;-84
2022/06/24 08:28:46;;;;;;;5.32;3.53;;;;;;;23.71;51.83;95378.94;5021645;28;20052;-82
2022/06/24 08:31:12;;;;;;;9.15;3.60;;;;;;;23.53;51.85;95375.53;5022903;28;20030;-83
2022/06/24 08:33:37;;;;;;;5.10;3.50;;;;;;;23.44;51.50;95375.16;5023588;28;20045;-82
2022/06/24 08:36:03;;;;;;;7.05;3.40;;;;;;;23.28;53.70;95374.19;5019658;28;20094;-81
2022/06/24 08:38:28;;;;;;;6.35;3.13;;;;;;;23.13;53.70;95382.25;5020803;28;21329;-81
2022/06/24 08:40:54;;;;;;;7.68;3.10;;;;;;;22.89;53.31;95377.09;5025885;28;20056;-81
2022/06/24 08:43:23;;;;;;;5.53;3.05;;;;;;;23.39;53.89;95380.59;5007232;28;20025;-80
2022/06/24 08:45:49;;;;;;;7.13;3.20;;;;;;;23.18;51.93;95377.63;5022860;28;20022;-81
2022/06/24 08:48:14;;;;;;;4.22;2.95;;;;;;;23.18;51.87;95379.56;5035585;28;20444;-82
2022/06/24 08:50:40;;;;;;;4.90;3.30;;;;;;;23.15;54.33;95380.09;5006374;28;20267;-82
2022/06/24 08:53:07;;;;;;;6.32;3.03;;;;;;;23.24;51.69;95392.22;5022148;28;20033;-82
2022/06/24 08:55:37;;;;;;;4.82;3.00;;;;;;;23.41;49.67;95380.34;5022102;28;20029;-82
2022/06/24 08:58:12;;;;;;;4.55;2.75;;;;;;;23.20;50.19;95380.13;5003505;28;20044;-83
2022/06/24 09:00:38;;;;;;;5.70;3.67;;;;;;;23.05;51.44;95376.16;5018623;28;20033;-82
2022/06/24 09:03:04;;;;;;;5.78;3.17;;;;;;;23.36;51.49;95372.06;5022970;28;20021;-83
2022/06/24 09:05:29;;;;;;;7.28;3.42;;;;;;;23.61;52.59;95374.22;5021640;28;20389;-82
2022/06/24 09:08:05;;;;;;;5.90;3.00;;;;;;;23.63;52.90;95374.78;5023126;28;20424;-82
2022/06/24 09:10:30;;;;;;;5.95;2.70;;;;;;;23.45;51.66;95374.09;5021673;28;20295;-82
2022/06/24 09:12:56;;;;;;;6.22;3.40;;;;;;;23.45;51.15;95365.06;5022193;28;20095;-82
2022/06/24 09:15:21;;;;;;;5.05;3.00;;;;;;;23.70;52.86;95374.53;5022452;28;20060;-82
2022/06/24 09:17:47;;;;;;;6.38;2.55;;;;;;;23.70;49.87;95372.63;4991362;28;20474;-81
2022/06/24 09:20:16;;;;;;;3.67;2.50;;;;;;;23.76;47.34;95367.19;5020350;28;20081;-83
2022/06/24 09:22:42;;;;;;;6.80;3.20;;;;;;;23.71;48.38;95362.53;5022797;28;20033;-82
2022/06/24 09:25:08;;;;;;;5.30;2.75;;;;;;;23.44;49.34;95355.22;5005519;28;20064;-81
2022/06/24 09:27:34;;;;;;;5.47;2.67;;;;;;;23.53;49.14;95370.06;4988888;28;20591;-81
2022/06/24 09:30:00;;;;;;;5.82;2.60;;;;;;;23.48;49.19;95361.78;5015676;28;20034;-82
2022/06/24 09:32:25;;;;;;;4.07;2.63;;;;;;;23.33;48.65;95363.28;5021726;28;20037;-81
2022/06/24 09:35:01;;;;;;;4.13;2.45;;;;;;;23.32;50.08;95364.38;5022192;28;20423;-81
2022/06/24 09:37:42;;;;;;;6.43;2.65;;;;;;;23.37;49.70;95368.25;5022581;28;20259;-81
2022/06/24 09:40:28;;;;;;;4.60;2.53;;;;;;;23.42;49.36;95369.16;5017544;28;20553;-80
2022/06/24 09:43:06;;;;;;;4.75;2.28;;;;;;;23.62;47.57;95370.38;5005492;28;21017;-80
2022/06/24 09:45:48;;;;;;;5.13;2.33;;;;;;;23.63;47.00;95373.94;5025255;28;20033;-82
2022/06/24 09:48:28;;;;;;;4.20;2.00;;;;;;;23.85;47.38;95375.75;5016878;28;20021;-80
2022/06/24 09:51:02;;;;;;;5.20;2.20;;;;;;;23.67;46.63;95375.06;5019813;28;20080;-81
2022/06/24 09:53:28;;;;;;;3.92;2.15;;;;;;;24.22;46.17;95363.94;5007739;28;20038;-83
2022/06/24 09:55:54;;;;;;;4.75;2.38;;;;;;;24.01;46.62;95362.97;4986596;28;20033;-82
2022/06/24 09:58:20;;;;;;;3.97;2.55;;;;;;;23.88;46.45;95359.63;5017313;28;20488;-81
2022/06/24 10:00:46;;;;;;;5.10;2.42;;;;;;;23.98;46.93;95366.25;5021618;28;20037;-81
2022/06/24 10:03:12;;;;;;;5.75;2.40;;;;;;;23.92;48.78;95370.88;5007556;28;20032;-81
2022/06/24 10:05:41;;;;;;;4.90;2.10;;;;;;;23.94;45.63;95368.69;5022257;28;20037;-80
2022/06/24 10:08:09;;;;;;;2.15;1.90;;;;;;;24.38;49.88;95366.75;5000042;28;20343;-81
2022/06/24 10:10:35;;;;;;;5.93;2.40;;;;;;;24.32;48.47;95369.50;5019408;28;20087;-81
2022/06/24 10:13:04;;;;;;;3.33;2.13;;;;;;;24.37;48.30;95373.34;5010102;28;20088;-82
2022/06/24 10:15:30;;;;;;;4.00;2.22;;;;;;;24.44;45.61;95368.41;5005840;28;20033;-81
2022/06/24 10:17:56;;;;;;;3.97;1.88;;;;;;;24.42;44.69;95376.09;5016403;28;20025;-81
2022/06/24 10:20:21;;;;;;;4.45;2.08;;;;;;;24.24;46.00;95367.25;5018276;28;20049;-81
2022/06/24 10:22:49;;;;;;;4.95;2.55;;;;;;;24.27;47.93;95372.19;4988082;28;20041;-81
2022/06/24 10:25:41;;;;;;;6.35;2.72;;;;;;;24.38;47.75;95367.59;5020472;28;20030;-81
2022/06/24 10:28:07;;;;;;;2.73;2.30;;;;;;;24.43;47.44;95377.75;5019167;28;20060;-82
2022/06/24 10:30:52;;;;;;;7.03;2.40;;;;;;;24.96;45.75;95376.84;5018259;28;20071;-82
2022/06/24 10:33:19;;;;;;;3.40;2.00;;;;;;;25.19;42.52;95374.72;5018400;28;20080;-82
2022/06/24 10:36:01;;;;;;;3.42;2.28;;;;;;;24.82;43.44;95376.53;5017138;28;20540;-81
2022/06/24 10:38:38;;;;;;;4.35;2.00;;;;;;;24.40;44.25;95368.16;5019100;28;20072;-81
2022/06/24 10:41:04;;;;;;;3.30;2.22;;;;;;;24.30;46.14;95360.69;5035605;28;20124;-82
2022/06/24 10:43:42;;;;;;;6.47;2.50;;;;;;;24.50;47.24;95361.06;5019341;28;20119;-82
2022/06/24 10:46:11;;;;;;;9.57;2.50;;;;;;;24.56;45.01;95359.97;5016993;28;20104;-81
2022/06/24 10:48:50;;;;;;;3.45;2.15;;;;;;;24.68;45.88;95365.25;5019242;28;20037;-81
2022/06/24 10:51:17;;;;;;;4.32;2.10;;;;;;;24.79;45.95;95366.94;5018870;28;20507;-83
2022/06/24 10:54:01;;;;;;;5.95;2.67;;;;;;;24.60;45.04;95363.00;5022051;28;20499;-81
2022/06/24 10:56:43;;;;;;;4.45;2.20;;;;;;;25.03;46.28;95363.72;5022484;28;20480;-82
2022/06/24 10:59:09;;;;;;;;;;;;;;;25.38;47.01;95365.94;5003529;28;20034;-82
2022/06/24 11:01:34;;;;;;;5.05;2.35;;;;;;;25.65;44.93;95359.41;5021644;28;19967;-81
2022/06/24 11:04:04;;;;;;;5.05;2.25;;;;;;;25.78;44.12;95352.50;4987355;28;20025;-82
2022/06/24 11:06:29;;;;;;;4.22;2.40;;;;;;;26.01;43.84;95350.25;5003380;28;20040;-82
2022/06/24 11:08:54;;;;;;;4.88;2.28;;;;;;;26.08;43.04;95347.22;5017742;28;20022;-81
2022/06/24 11:11:30;;;;;;;7.72;2.40;;;;;;;26.21;43.86;95341.16;5017137;28;20103;-81
2022/06/24 11:13:55;;;;;;;3.35;2.10;;;;;;;26.14;43.20;95337.88;5020070;28;20033;-83
2022/06/24 11:16:21;;;;;;;7.55;2.70;;;;;;;25.84;43.31;95340.41;5024178;28;20075;-82
2022/06/24 11:18:50;;;;;;;3.33;2.10;;;;;;;25.92;43.37;95342.56;5022242;28;20057;-81
2022/06/24 11:21:17;;;;;;;3.88;1.83;;;;;;;25.93;42.72;95337.91;5008919;28;20033;-83
2022/06/24 11:23:43;;;;;;;3.10;2.22;;;;;;;25.90;43.45;95338.47;5024544;28;20412;-83
2022/06/24 11:26:16;;;;;;;4.90;2.28;;;;;;;25.73;42.64;95338.78;5007561;28;20617;-84
2022/06/24 11:28:43;;;;;;;5.15;2.08;;;;;;;25.85;43.38;95332.97;5003952;28;20121;-81
2022/06/24 11:31:21;;;;;;;4.93;2.00;;;;;;;25.98;41.99;95335.16;5011708;28;20120;-83
2022/06/24 11:34:06;;;;;;;4.55;2.65;;;;;;;26.16;40.45;95338.41;5024057;28;20061;-84
2022/06/24 11:36:32;;;;;;;6.15;1.80;;;;;;;26.02;40.25;95330.75;5006779;28;20076;-83
2022/06/24 11:38:59;;;;;;;4.28;1.90;;;;;;;25.95;41.33;95319.25;5003180;28;20151;-84
2022/06/24 11:41:29;;;;;;;4.40;1.80;;;;;;;26.14;41.15;95322.22;5008931;28;20030;-82